createdAt,value
2019-05-15T00:03:08.854Z,61.35
2019-05-15T00:08:33.703Z,61.58
2019-05-15T00:13:58.942Z,62.16
2019-05-15T00:19:24.438Z,62.92
2019-05-15T00:24:49.010Z,63.18
2019-05-15T00:30:13.910Z,64.00
2019-05-15T00:35:39.268Z,64.74
2019-05-15T00:41:04.542Z,64.98
2019-05-15T00:46:29.134Z,65.83
2019-05-15T00:51:54.052Z,65.99
2019-05-15T00:57:19.314Z,67.23
2019-05-15T01:02:44.951Z,67.00
2019-05-15T01:08:10.110Z,66.83
2019-05-15T01:13:34.728Z,67.09
2019-05-15T01:18:59.503Z,68.09
2019-05-15T01:24:24.533Z,68.03
2019-05-15T01:29:49.545Z,68.13
2019-05-15T01:35:13.993Z,68.71
2019-05-15T01:40:38.853Z,69.00
2019-05-15T01:46:02.452Z,68.79
2019-05-15T01:51:28.584Z,69.11
2019-05-15T01:56:52.712Z,69.34
2019-05-15T02:02:18.687Z,69.46
2019-05-15T02:07:43.372Z,69.39
2019-05-15T02:13:08.711Z,69.12
2019-05-15T02:18:32.954Z,69.23
2019-05-15T02:23:58.769Z,69.86
2019-05-15T02:29:25.113Z,70.27
2019-05-15T02:34:50.173Z,70.62
2019-05-15T02:40:15.325Z,70.96
2019-05-15T02:45:42.300Z,71.59
2019-05-15T02:51:05.251Z,72.32
2019-05-15T02:56:29.909Z,72.66
2019-05-15T03:01:53.799Z,72.83
2019-05-15T03:07:19.253Z,73.06
2019-05-15T03:12:43.359Z,73.36
2019-05-15T03:18:09.635Z,73.31
2019-05-15T03:23:33.566Z,73.24
2019-05-15T03:28:59.012Z,73.66
2019-05-15T03:34:30.753Z,73.64
2019-05-15T03:39:51.864Z,72.83
2019-05-15T03:45:14.002Z,72.08
2019-05-15T03:50:40.330Z,71.24
2019-05-15T03:56:03.247Z,70.63
2019-05-15T04:01:34.066Z,70.02
2019-05-15T04:07:02.979Z,69.83
2019-05-15T04:12:29.024Z,69.04
2019-05-15T04:17:53.500Z,68.46
2019-05-15T04:23:23.103Z,67.54
2019-05-15T04:28:49.393Z,66.99
2019-05-15T04:34:14.088Z,66.09
2019-05-15T04:39:39.956Z,64.74
2019-05-15T04:45:04.883Z,63.87
2019-05-15T04:50:29.392Z,63.12
2019-05-15T04:55:54.102Z,62.16
2019-05-15T05:01:20.187Z,61.59
2019-05-15T05:06:44.766Z,60.70
2019-05-15T05:12:09.461Z,60.17
2019-05-15T05:17:33.401Z,59.63
2019-05-15T05:22:58.943Z,58.42
2019-05-15T05:28:23.339Z,57.62
2019-05-15T05:33:48.646Z,56.50
2019-05-15T05:39:17.673Z,55.60
2019-05-15T05:44:42.766Z,54.96
2019-05-15T05:50:08.091Z,54.12
2019-05-15T05:55:32.048Z,53.63
2019-05-15T06:00:58.553Z,53.45
2019-05-15T06:06:23.635Z,52.61
2019-05-15T06:11:48.923Z,51.96
2019-05-15T06:17:13.482Z,50.88
2019-05-15T06:22:38.737Z,49.32
2019-05-15T06:28:04.843Z,47.57
2019-05-15T06:33:28.613Z,44.37
2019-05-15T06:38:53.512Z,40.00
2019-05-15T06:44:18.824Z,36.39
2019-05-15T06:49:42.759Z,35.25
2019-05-15T06:55:09.108Z,37.46
2019-05-15T07:00:35.740Z,38.84
2019-05-15T07:06:00.061Z,38.29
2019-05-15T07:11:25.445Z,37.68
2019-05-15T07:16:50.092Z,36.54
2019-05-15T07:22:14.013Z,33.60
2019-05-15T07:27:39.084Z,32.80
2019-05-15T07:33:03.050Z,30.63
2019-05-15T07:38:28.227Z,32.32
2019-05-15T07:43:52.514Z,34.92
2019-05-15T07:49:18.141Z,34.33
2019-05-15T07:54:42.724Z,31.85
2019-05-15T08:00:09.591Z,31.39
2019-05-15T08:05:34.158Z,33.27
2019-05-15T08:10:58.038Z,33.07
2019-05-15T08:16:22.137Z,33.13
2019-05-15T08:21:51.655Z,34.05
2019-05-15T08:27:12.984Z,33.49
2019-05-15T08:32:38.915Z,32.16
2019-05-15T08:38:02.967Z,30.58
2019-05-15T08:43:29.123Z,30.85
2019-05-15T08:48:53.361Z,29.85
2019-05-15T08:54:18.365Z,29.36
2019-05-15T08:59:42.150Z,30.28
2019-05-15T09:05:08.469Z,29.70
2019-05-15T09:10:32.438Z,30.09
2019-05-15T09:15:58.709Z,28.19
2019-05-15T09:21:21.853Z,29.73
2019-05-15T09:26:45.461Z,29.75
2019-05-15T09:32:12.373Z,29.27
2019-05-15T09:37:34.572Z,30.65
2019-05-15T09:42:59.248Z,30.95
2019-05-15T09:48:23.530Z,31.00
2019-05-15T09:53:48.553Z,31.34
2019-05-15T09:59:12.894Z,31.40
2019-05-15T10:04:38.861Z,28.29
2019-05-15T10:10:02.382Z,28.83
2019-05-15T10:15:25.991Z,28.93
2019-05-15T10:20:50.707Z,29.71
2019-05-15T10:26:14.925Z,29.68
2019-05-15T10:31:39.831Z,30.43
2019-05-15T10:37:04.275Z,31.37
2019-05-15T10:42:29.127Z,31.67
2019-05-15T10:47:53.950Z,32.58
2019-05-15T10:53:19.159Z,31.48
2019-05-15T10:58:42.932Z,32.79
2019-05-15T11:04:09.105Z,32.89
2019-05-15T11:09:33.842Z,33.11
2019-05-15T11:14:57.630Z,32.92
2019-05-15T11:20:22.319Z,32.72
2019-05-15T11:25:48.708Z,33.23
2019-05-15T11:31:12.554Z,33.59
2019-05-15T11:36:38.665Z,33.12
2019-05-15T11:42:02.672Z,33.76
2019-05-15T11:47:27.876Z,33.91
2019-05-15T11:52:53.367Z,33.59
2019-05-15T11:58:19.046Z,32.69
2019-05-15T12:03:43.987Z,32.66
2019-05-15T12:09:09.235Z,33.30
2019-05-15T12:14:33.963Z,32.52
2019-05-15T12:25:28.494Z,33.58
2019-05-15T12:30:49.789Z,33.60
2019-05-15T12:36:14.600Z,33.30
2019-05-15T13:03:21.602Z,32.41
2019-05-15T13:08:48.652Z,34.36
2019-05-15T13:14:12.085Z,36.89
2019-05-15T13:19:38.760Z,38.62
2019-05-15T13:25:02.525Z,46.33
2019-05-15T13:30:26.637Z,57.20
2019-05-15T13:35:51.437Z,59.54
2019-05-15T13:41:18.977Z,61.10
2019-05-15T13:46:44.524Z,61.05
2019-05-15T13:52:08.685Z,59.91
2019-05-15T13:57:34.423Z,56.55
2019-05-15T14:02:58.519Z,55.69
2019-05-15T14:08:22.813Z,55.19
2019-05-15T14:13:48.597Z,53.17
2019-05-15T14:19:13.490Z,52.58
2019-05-15T14:24:38.361Z,53.80
2019-05-15T14:30:03.861Z,50.79
2019-05-15T14:35:28.309Z,50.01
2019-05-15T14:40:52.736Z,49.44
2019-05-15T14:46:18.536Z,47.67
2019-05-15T14:51:43.093Z,46.31
2019-05-15T14:57:08.722Z,45.91
2019-05-15T15:02:33.232Z,44.04
2019-05-15T15:07:58.697Z,44.15
2019-05-15T15:13:23.157Z,43.47
2019-05-15T15:18:48.288Z,44.35
2019-05-15T15:24:12.120Z,43.85
2019-05-15T15:29:38.928Z,44.33
2019-05-15T15:35:02.337Z,44.98
2019-05-15T15:40:28.279Z,45.42
2019-05-15T15:45:51.759Z,45.51
2019-05-15T15:51:17.854Z,46.64
2019-05-15T15:56:42.777Z,47.08
2019-05-15T16:02:08.851Z,47.07
2019-05-15T16:07:33.708Z,47.25
2019-05-15T16:12:58.228Z,46.53
2019-05-15T16:18:22.892Z,46.19
2019-05-15T16:23:48.079Z,46.16
2019-05-15T16:29:13.121Z,46.50
2019-05-15T16:34:39.297Z,46.94
2019-05-15T16:40:04.230Z,46.75
2019-05-15T16:45:29.039Z,45.90
2019-05-15T16:50:53.879Z,46.99
2019-05-15T16:56:19.755Z,47.31
2019-05-15T17:01:44.307Z,48.07
2019-05-15T17:07:08.235Z,48.68
2019-05-15T17:12:32.114Z,49.22
2019-05-15T17:17:58.341Z,50.25
2019-05-15T17:23:22.305Z,50.77
2019-05-15T17:28:46.383Z,51.45
2019-05-15T17:34:10.612Z,52.61
2019-05-15T17:39:37.717Z,53.44
2019-05-15T17:44:59.954Z,54.01
2019-05-15T17:50:24.259Z,57.04
2019-05-15T17:55:48.974Z,62.08
2019-05-15T18:01:13.085Z,66.82
2019-05-15T18:06:39.213Z,66.60
2019-05-15T18:12:22.079Z,66.64
2019-05-15T18:17:48.220Z,67.32
2019-05-15T18:23:13.345Z,67.48
2019-05-15T18:28:38.786Z,67.54
2019-05-15T18:34:04.330Z,67.21
2019-05-15T18:39:28.425Z,67.11
2019-05-15T18:44:52.898Z,67.02
2019-05-15T18:50:17.705Z,66.30
2019-05-15T18:55:41.553Z,66.03
2019-05-15T19:01:09.081Z,65.92
2019-05-15T19:06:31.712Z,65.75
2019-05-15T19:11:58.045Z,64.17
2019-05-15T19:17:21.837Z,64.06
2019-05-15T19:22:48.040Z,63.97
2019-05-15T19:28:10.944Z,64.14
2019-05-15T19:33:38.258Z,63.66
2019-05-15T19:39:00.980Z,63.21
2019-05-15T19:44:28.503Z,62.80
2019-05-15T19:49:53.188Z,63.31
2019-05-15T19:55:20.873Z,63.38
2019-05-15T20:00:45.238Z,63.81
2019-05-15T20:06:09.275Z,63.09
2019-05-15T20:11:32.777Z,62.81
2019-05-15T20:16:58.965Z,62.88
2019-05-15T20:22:24.569Z,62.44
2019-05-15T20:27:48.519Z,61.69
2019-05-15T20:33:13.385Z,61.59
2019-05-15T20:38:39.477Z,61.48
2019-05-15T20:44:05.152Z,61.44
2019-05-15T20:49:29.760Z,61.41
2019-05-15T20:54:54.318Z,61.23
2019-05-15T21:00:19.404Z,60.76
2019-05-15T21:05:44.232Z,60.99
2019-05-15T21:11:11.934Z,61.05
2019-05-15T21:16:34.534Z,60.28
2019-05-15T21:21:59.168Z,60.66
2019-05-15T21:27:24.375Z,60.00
2019-05-15T21:32:49.630Z,60.25
2019-05-15T21:38:14.623Z,60.15
2019-05-15T21:43:39.776Z,59.84
2019-05-15T21:49:03.530Z,59.96
2019-05-15T21:54:28.309Z,59.66
2019-05-15T21:59:52.929Z,59.62
2019-05-15T22:05:19.075Z,59.11
2019-05-15T22:10:42.903Z,59.16
2019-05-15T22:16:08.191Z,59.03
2019-05-15T22:21:33.158Z,59.18
2019-05-15T22:26:58.704Z,59.51
2019-05-15T22:32:22.574Z,59.73
2019-05-15T22:37:49.384Z,59.39
2019-05-15T22:43:12.946Z,59.60
2019-05-15T22:48:38.081Z,60.28
2019-05-15T22:54:02.490Z,60.92
2019-05-15T22:59:28.348Z,64.04
2019-05-15T23:04:53.283Z,66.36
2019-05-15T23:10:18.054Z,68.08
2019-05-15T23:15:42.076Z,71.41
2019-05-15T23:21:08.466Z,74.06
2019-05-15T23:26:32.296Z,75.29
2019-05-15T23:31:58.267Z,75.69
2019-05-15T23:37:22.328Z,76.23
2019-05-15T23:42:48.881Z,76.94
2019-05-15T23:48:12.842Z,76.72
2019-05-15T23:53:37.547Z,76.32
2019-05-15T23:59:02.528Z,77.18
